createdAt,value
2022-09-26T00:00:30.484Z,94.24
2022-09-26T00:02:58.087Z,94.17
2022-09-26T00:05:26.944Z,93.62
2022-09-26T00:07:54.414Z,94.22
2022-09-26T00:10:21.913Z,94.28
2022-09-26T00:12:49.370Z,93.56
2022-09-26T00:15:16.959Z,92.86
2022-09-26T00:17:44.407Z,92.78
2022-09-26T00:20:11.975Z,93.25
2022-09-26T00:22:40.831Z,92.63
2022-09-26T00:25:09.196Z,93.47
2022-09-26T00:27:36.646Z,93.17
2022-09-26T00:30:05.023Z,93.46
2022-09-26T00:32:32.488Z,92.88
2022-09-26T00:34:59.998Z,93.36
2022-09-26T00:37:27.584Z,93.61
2022-09-26T00:39:56.421Z,93.59
2022-09-26T00:42:25.075Z,93.80
2022-09-26T00:44:54.603Z,93.54
2022-09-26T00:47:40.593Z,92.61
2022-09-26T00:50:13.717Z,93.19
2022-09-26T00:52:44.743Z,92.83
2022-09-26T00:55:15.334Z,93.61
2022-09-26T00:57:46.371Z,93.07
2022-09-26T01:00:15.784Z,93.54
2022-09-26T01:02:44.100Z,93.54
2022-09-26T01:05:14.601Z,93.87
2022-09-26T01:07:42.121Z,93.92
2022-09-26T01:10:10.451Z,93.55
2022-09-26T01:12:39.749Z,94.08
2022-09-26T01:15:09.305Z,93.98
2022-09-26T01:17:37.928Z,93.93
2022-09-26T01:20:14.720Z,93.90
2022-09-26T01:23:07.068Z,94.63
2022-09-26T01:25:50.652Z,94.59
2022-09-26T01:28:34.963Z,94.70
2022-09-26T01:31:11.895Z,94.23
2022-09-26T01:33:49.588Z,94.51
2022-09-26T01:36:27.543Z,94.32
2022-09-26T01:39:04.426Z,93.00
2022-09-26T01:41:44.012Z,93.03
2022-09-26T01:44:20.745Z,93.43
2022-09-26T01:46:53.362Z,93.18
2022-09-26T01:49:24.268Z,93.69
2022-09-26T01:51:55.730Z,93.41
2022-09-26T01:54:27.602Z,93.57
2022-09-26T01:56:58.273Z,93.48
2022-09-26T01:59:28.334Z,93.12
2022-09-26T02:02:00.847Z,93.56
2022-09-26T02:04:32.121Z,92.88
2022-09-26T02:07:01.647Z,93.36
2022-09-26T02:09:31.242Z,93.50
2022-09-26T02:12:02.438Z,93.71
2022-09-26T02:14:32.853Z,93.74
2022-09-26T02:17:05.603Z,94.02
2022-09-26T02:19:36.353Z,93.73
2022-09-26T02:22:04.116Z,93.60
2022-09-26T02:24:31.679Z,93.33
2022-09-26T02:26:59.260Z,93.23
2022-09-26T02:29:27.927Z,92.34
2022-09-26T02:31:58.418Z,92.58
2022-09-26T02:34:27.582Z,92.56
2022-09-26T02:36:55.879Z,92.42
2022-09-26T02:39:23.432Z,92.13
2022-09-26T02:41:54.138Z,92.37
2022-09-26T02:44:32.107Z,93.05
2022-09-26T02:47:10.789Z,93.12
2022-09-26T02:49:51.079Z,92.83
2022-09-26T02:52:27.161Z,92.71
2022-09-26T02:55:01.856Z,92.81
2022-09-26T02:57:35.750Z,92.58
2022-09-26T03:00:06.826Z,92.69
2022-09-26T03:02:37.138Z,93.12
2022-09-26T03:05:10.044Z,94.33
2022-09-26T03:07:43.752Z,93.20
2022-09-26T03:10:12.982Z,93.12
2022-09-26T03:12:40.912Z,93.36
2022-09-26T03:15:09.651Z,93.66
2022-09-26T03:17:38.039Z,93.84
2022-09-26T03:20:11.089Z,94.06
2022-09-26T03:22:38.962Z,93.92
2022-09-26T03:25:09.034Z,94.25
2022-09-26T03:27:38.222Z,94.72
2022-09-26T03:30:06.512Z,94.38
2022-09-26T03:32:33.974Z,94.14
2022-09-26T03:35:01.490Z,93.76
2022-09-26T03:37:30.306Z,93.70
2022-09-26T03:39:57.751Z,93.87
2022-09-26T03:42:25.229Z,94.36
2022-09-26T03:44:53.157Z,94.35
2022-09-26T03:47:20.585Z,94.37
2022-09-26T03:49:48.107Z,93.75
2022-09-26T03:52:15.665Z,92.93
2022-09-26T03:54:44.789Z,92.70
2022-09-26T03:57:13.504Z,92.90
2022-09-26T03:59:41.194Z,93.09
2022-09-26T04:02:08.984Z,92.99
2022-09-26T04:04:36.588Z,92.48
2022-09-26T04:07:04.338Z,92.40
2022-09-26T04:09:32.374Z,91.84
2022-09-26T04:12:01.441Z,92.36
2022-09-26T04:14:28.900Z,92.86
2022-09-26T04:16:56.738Z,92.63
2022-09-26T04:19:24.401Z,92.94
2022-09-26T04:21:52.067Z,92.76
2022-09-26T04:24:19.525Z,92.94
2022-09-26T04:26:46.972Z,92.98
2022-09-26T04:29:16.003Z,92.57
2022-09-26T04:31:44.034Z,92.61
2022-09-26T04:34:12.187Z,92.54
2022-09-26T04:36:40.040Z,92.52
2022-09-26T04:39:07.680Z,93.31
2022-09-26T04:41:35.580Z,94.03
2022-09-26T04:44:03.306Z,93.90
2022-09-26T04:46:32.168Z,93.69
2022-09-26T04:49:00.956Z,93.28
2022-09-26T04:51:29.580Z,93.29
2022-09-26T04:53:57.149Z,93.50
2022-09-26T04:56:27.036Z,93.58
2022-09-26T04:58:56.820Z,93.25
2022-09-26T05:01:24.774Z,94.39
2022-09-26T05:03:55.050Z,94.24
2022-09-26T05:06:22.544Z,94.32
2022-09-26T05:08:50.817Z,94.42
2022-09-26T05:11:19.718Z,94.40
2022-09-26T05:13:53.059Z,93.87
2022-09-26T05:16:21.045Z,93.56
2022-09-26T05:18:50.892Z,93.49
2022-09-26T05:21:19.707Z,93.92
2022-09-26T05:24:05.097Z,94.75
2022-09-26T05:26:39.505Z,94.47
2022-09-26T05:29:08.907Z,94.56
2022-09-26T05:31:38.014Z,94.33
2022-09-26T05:34:06.073Z,94.27
2022-09-26T05:36:35.152Z,94.78
2022-09-26T05:39:03.073Z,95.00
2022-09-26T05:41:31.185Z,94.84
2022-09-26T05:43:58.957Z,94.05
2022-09-26T05:46:28.003Z,94.48
2022-09-26T05:48:57.139Z,94.12
2022-09-26T05:51:25.813Z,95.07
2022-09-26T05:53:54.682Z,95.47
2022-09-26T05:56:23.520Z,95.63
2022-09-26T05:58:51.348Z,95.90
2022-09-26T06:01:19.539Z,95.99
2022-09-26T06:03:48.063Z,96.49
2022-09-26T06:06:18.794Z,96.87
2022-09-26T06:08:47.139Z,96.50
2022-09-26T06:11:17.693Z,96.41
2022-09-26T06:13:46.487Z,96.45
2022-09-26T06:16:15.852Z,96.56
2022-09-26T06:18:43.500Z,96.11
2022-09-26T06:21:13.212Z,96.38
2022-09-26T06:23:40.823Z,96.63
2022-09-26T06:26:10.185Z,97.13
2022-09-26T06:28:40.109Z,96.96
2022-09-26T06:31:10.255Z,96.29
2022-09-26T06:33:37.754Z,96.63
2022-09-26T06:36:07.477Z,96.77
2022-09-26T06:38:35.506Z,96.82
2022-09-26T06:41:03.317Z,96.83
2022-09-26T06:43:31.203Z,96.57
2022-09-26T06:46:00.005Z,96.51
2022-09-26T06:48:27.543Z,96.82
2022-09-26T06:50:55.607Z,96.33
2022-09-26T06:53:23.671Z,96.25
2022-09-26T06:55:51.128Z,96.41
2022-09-26T06:58:18.739Z,96.13
2022-09-26T07:00:46.210Z,96.55
2022-09-26T07:03:15.961Z,96.40
2022-09-26T07:05:43.707Z,96.44
2022-09-26T07:08:11.299Z,95.78
2022-09-26T07:10:38.748Z,96.18
2022-09-26T07:13:07.608Z,95.59
2022-09-26T07:15:36.958Z,95.33
2022-09-26T07:18:06.294Z,95.92
2022-09-26T07:20:37.588Z,95.26
2022-09-26T07:23:08.475Z,95.53
2022-09-26T07:25:38.704Z,95.33
2022-09-26T07:28:06.731Z,95.64
2022-09-26T07:30:34.245Z,95.37
2022-09-26T07:33:04.013Z,95.46
2022-09-26T07:35:32.229Z,95.42
2022-09-26T07:38:01.062Z,94.65
2022-09-26T07:40:28.953Z,94.90
2022-09-26T07:43:18.715Z,95.11
2022-09-26T07:46:07.709Z,93.97
2022-09-26T07:48:53.140Z,94.10
2022-09-26T07:51:22.594Z,93.64
2022-09-26T07:53:51.503Z,93.57
2022-09-26T07:56:18.968Z,92.71
2022-09-26T07:58:46.625Z,92.92
2022-09-26T08:01:15.972Z,92.05
2022-09-26T08:03:46.030Z,91.36
2022-09-26T08:06:14.619Z,91.44
2022-09-26T08:08:42.278Z,90.07
2022-09-26T08:11:16.725Z,89.33
2022-09-26T08:13:44.629Z,90.11
2022-09-26T08:16:19.200Z,89.26
2022-09-26T08:18:47.357Z,88.97
2022-09-26T08:21:14.836Z,88.19
2022-09-26T08:23:42.360Z,88.69
2022-09-26T08:26:09.849Z,89.08
2022-09-26T08:28:39.205Z,88.35
2022-09-26T08:31:08.131Z,88.85
2022-09-26T08:33:38.621Z,88.67
2022-09-26T08:36:06.526Z,88.80
2022-09-26T08:38:35.400Z,87.97
2022-09-26T08:41:11.509Z,87.88
2022-09-26T08:43:54.004Z,88.61
2022-09-26T08:46:40.776Z,88.36
2022-09-26T08:49:23.991Z,88.98
2022-09-26T08:51:52.791Z,89.06
2022-09-26T08:54:23.698Z,88.96
2022-09-26T08:56:53.780Z,88.27
2022-09-26T08:59:27.165Z,87.22
2022-09-26T09:01:56.582Z,86.47
2022-09-26T09:04:28.697Z,87.26
2022-09-26T09:06:59.680Z,87.23
2022-09-26T09:09:27.147Z,85.75
2022-09-26T09:12:05.171Z,85.78
2022-09-26T09:14:57.966Z,85.54
2022-09-26T09:17:39.379Z,85.00
2022-09-26T09:20:16.076Z,85.42
2022-09-26T09:23:01.750Z,85.56
2022-09-26T09:25:32.526Z,85.46
2022-09-26T09:28:16.243Z,84.08
2022-09-26T09:30:48.123Z,84.58
2022-09-26T09:33:17.683Z,83.85
2022-09-26T09:35:48.803Z,82.60
2022-09-26T09:38:18.637Z,83.02
2022-09-26T09:40:51.893Z,83.32
2022-09-26T09:43:26.743Z,82.21
2022-09-26T09:45:58.834Z,81.49
2022-09-26T09:48:28.202Z,81.21
2022-09-26T09:51:08.574Z,81.23
2022-09-26T09:53:48.180Z,79.16
2022-09-26T09:56:24.275Z,78.92
2022-09-26T09:59:03.736Z,78.02
2022-09-26T10:01:36.641Z,77.57
2022-09-26T10:04:07.958Z,76.14
2022-09-26T10:06:44.164Z,75.72
2022-09-26T10:09:35.589Z,76.90
2022-09-26T10:12:13.317Z,76.46
2022-09-26T10:14:44.000Z,74.95
2022-09-26T10:17:21.175Z,74.34
2022-09-26T10:19:49.034Z,73.74
2022-09-26T10:22:26.005Z,70.88
2022-09-26T10:24:55.427Z,70.72
2022-09-26T10:27:35.410Z,69.97
2022-09-26T10:30:04.775Z,68.00
2022-09-26T10:32:45.680Z,67.93
2022-09-26T10:35:20.073Z,69.59
2022-09-26T10:37:50.099Z,68.99
2022-09-26T10:40:42.504Z,68.61
2022-09-26T10:43:24.995Z,68.08
2022-09-26T10:45:55.383Z,69.69
2022-09-26T10:48:48.054Z,70.04
2022-09-26T10:51:19.865Z,69.33
2022-09-26T10:53:51.994Z,70.43
2022-09-26T10:56:26.143Z,67.16
2022-09-26T10:58:58.272Z,67.19
2022-09-26T11:01:27.674Z,63.61
2022-09-26T11:03:59.921Z,64.30
2022-09-26T11:06:29.081Z,65.52
2022-09-26T11:09:02.889Z,64.32
2022-09-26T11:11:33.633Z,64.88
2022-09-26T11:14:05.696Z,64.26
2022-09-26T11:16:51.662Z,63.85
2022-09-26T11:19:27.703Z,64.56
2022-09-26T11:22:03.251Z,63.73
2022-09-26T11:24:38.191Z,64.57
2022-09-26T11:27:13.311Z,64.46
2022-09-26T11:29:44.422Z,65.56
2022-09-26T11:32:15.108Z,65.12
2022-09-26T11:34:44.172Z,65.32
2022-09-26T11:37:22.083Z,65.14
2022-09-26T11:40:00.441Z,64.67
2022-09-26T11:42:39.595Z,65.53
2022-09-26T11:45:15.218Z,62.72
2022-09-26T11:47:58.061Z,64.15
2022-09-26T11:50:49.490Z,63.14
2022-09-26T11:53:33.361Z,62.33
2022-09-26T11:56:15.816Z,61.67
2022-09-26T11:58:48.335Z,62.70
2022-09-26T12:01:24.317Z,62.97
2022-09-26T12:04:16.386Z,61.65
2022-09-26T12:06:52.197Z,62.03
2022-09-26T12:09:32.834Z,61.40
2022-09-26T12:12:09.522Z,63.18
2022-09-26T12:14:45.847Z,62.09
2022-09-26T12:17:21.596Z,59.66
2022-09-26T12:19:56.469Z,59.58
2022-09-26T12:22:29.701Z,60.93
2022-09-26T12:25:13.052Z,60.67
2022-09-26T12:27:47.896Z,63.33
2022-09-26T12:30:17.149Z,59.79
2022-09-26T12:33:02.669Z,61.81
2022-09-26T12:35:38.412Z,62.11
2022-09-26T12:38:20.409Z,61.70
2022-09-26T12:40:56.200Z,61.12
2022-09-26T12:43:38.410Z,63.20
2022-09-26T12:46:16.952Z,63.36
2022-09-26T12:48:55.997Z,62.70
2022-09-26T12:51:30.857Z,62.65
2022-09-26T12:54:20.776Z,61.98
2022-09-26T12:56:53.111Z,64.17
2022-09-26T12:59:37.797Z,62.98
2022-09-26T13:02:20.226Z,64.53
2022-09-26T13:05:08.466Z,65.27
2022-09-26T13:07:44.813Z,66.25
2022-09-26T13:10:41.963Z,66.78
2022-09-26T13:13:30.205Z,67.35
2022-09-26T13:16:08.164Z,67.13
2022-09-26T13:18:44.679Z,67.47
2022-09-26T13:21:14.638Z,66.36
2022-09-26T13:23:46.863Z,65.12
2022-09-26T13:26:19.835Z,65.33
2022-09-26T13:29:12.859Z,65.03
2022-09-26T13:31:40.927Z,65.17
2022-09-26T13:34:14.809Z,65.82
2022-09-26T13:36:43.336Z,63.75
2022-09-26T13:39:16.245Z,64.22
2022-09-26T13:41:49.251Z,64.85
2022-09-26T13:44:27.027Z,65.77
2022-09-26T13:47:03.468Z,64.23
2022-09-26T13:49:40.075Z,65.08
2022-09-26T13:52:19.960Z,63.11
2022-09-26T13:54:57.145Z,63.78
2022-09-26T13:57:31.724Z,64.62
2022-09-26T13:59:59.617Z,64.65
2022-09-26T14:02:29.174Z,66.49
2022-09-26T14:05:28.497Z,67.04
2022-09-26T14:08:13.571Z,67.42
2022-09-26T14:10:43.298Z,67.59
2022-09-26T14:13:21.777Z,69.25
2022-09-26T14:16:03.453Z,69.44
2022-09-26T14:18:47.296Z,68.32
2022-09-26T14:21:32.679Z,70.54
2022-09-26T14:24:37.116Z,72.93
2022-09-26T14:27:21.737Z,72.32
2022-09-26T14:29:53.572Z,71.86
2022-09-26T14:32:24.001Z,72.14
2022-09-26T14:34:57.205Z,74.04
2022-09-26T14:37:30.890Z,74.42
2022-09-26T14:40:07.135Z,73.02
2022-09-26T14:42:38.325Z,71.53
2022-09-26T14:45:09.663Z,73.57
2022-09-26T14:47:41.192Z,72.51
2022-09-26T14:50:17.499Z,73.03
2022-09-26T14:52:51.564Z,73.01
2022-09-26T14:55:20.194Z,73.07
2022-09-26T14:57:48.965Z,73.88
2022-09-26T15:00:40.317Z,71.58
2022-09-26T15:03:14.742Z,72.57
2022-09-26T15:05:43.392Z,73.93
2022-09-26T15:08:24.358Z,72.92
2022-09-26T15:10:53.010Z,74.11
2022-09-26T15:13:28.192Z,73.99
2022-09-26T15:16:02.110Z,73.67
2022-09-26T15:18:34.617Z,73.01
2022-09-26T15:21:10.791Z,73.79
2022-09-26T15:23:47.861Z,73.80
2022-09-26T15:26:17.762Z,71.72
2022-09-26T15:28:48.411Z,72.03
2022-09-26T15:31:22.567Z,71.83
2022-09-26T15:33:55.993Z,72.68
2022-09-26T15:36:23.624Z,72.18
2022-09-26T15:38:51.185Z,72.75
2022-09-26T15:41:42.509Z,72.62
2022-09-26T15:44:20.548Z,73.20
2022-09-26T15:46:50.897Z,73.51
2022-09-26T15:49:22.905Z,73.18
2022-09-26T15:51:54.042Z,73.44
2022-09-26T15:54:24.055Z,73.47
2022-09-26T15:56:52.204Z,73.83
2022-09-26T15:59:22.608Z,73.80
2022-09-26T16:01:52.454Z,72.79
2022-09-26T16:04:22.411Z,73.04
2022-09-26T16:06:56.728Z,73.26
2022-09-26T16:09:27.275Z,74.13
2022-09-26T16:11:56.470Z,73.11
2022-09-26T16:14:27.039Z,73.63
2022-09-26T16:17:02.758Z,73.38
2022-09-26T16:19:33.505Z,71.71
2022-09-26T16:22:22.431Z,72.75
2022-09-26T16:24:50.940Z,71.82
2022-09-26T16:27:25.061Z,73.07
2022-09-26T16:29:52.937Z,72.92
2022-09-26T16:32:23.229Z,72.85
2022-09-26T16:34:51.122Z,72.77
2022-09-26T16:37:19.607Z,72.62
2022-09-26T16:39:56.070Z,72.75
2022-09-26T16:42:32.679Z,73.19
2022-09-26T16:45:04.780Z,73.07
2022-09-26T16:47:42.741Z,72.89
2022-09-26T16:50:26.997Z,72.86
2022-09-26T16:52:55.125Z,73.57
2022-09-26T16:55:23.151Z,74.05
2022-09-26T16:57:53.844Z,73.75
2022-09-26T17:00:40.974Z,73.35
2022-09-26T17:03:21.151Z,74.89
2022-09-26T17:05:49.171Z,75.30
2022-09-26T17:08:17.710Z,76.30
2022-09-26T17:10:45.995Z,77.24
2022-09-26T17:13:16.974Z,78.35
2022-09-26T17:15:47.608Z,78.62
2022-09-26T17:18:20.756Z,79.64
2022-09-26T17:20:49.057Z,81.57
2022-09-26T17:23:39.354Z,82.26
2022-09-26T17:26:07.795Z,83.20
2022-09-26T17:28:38.519Z,83.35
2022-09-26T17:31:07.797Z,82.89
2022-09-26T17:33:39.967Z,84.80
2022-09-26T17:36:10.792Z,84.32
2022-09-26T17:38:42.143Z,84.94
2022-09-26T17:41:12.427Z,84.49
2022-09-26T17:43:40.062Z,84.70
2022-09-26T17:46:15.173Z,84.80
2022-09-26T17:48:44.825Z,85.18
2022-09-26T17:51:14.127Z,85.07
2022-09-26T17:53:49.788Z,85.35
2022-09-26T17:56:18.503Z,85.43
2022-09-26T17:58:47.080Z,85.94
2022-09-26T18:01:22.148Z,86.96
2022-09-26T18:03:54.842Z,87.82
2022-09-26T18:06:25.925Z,88.27
2022-09-26T18:08:54.991Z,89.79
2022-09-26T18:11:22.615Z,89.08
2022-09-26T18:13:54.514Z,90.89
2022-09-26T18:16:25.118Z,92.04
2022-09-26T18:18:54.172Z,92.03
2022-09-26T18:21:24.280Z,93.16
2022-09-26T18:23:53.582Z,91.91
2022-09-26T18:26:27.262Z,91.61
2022-09-26T18:28:56.676Z,91.71
2022-09-26T18:31:28.124Z,91.20
2022-09-26T18:33:57.920Z,91.93
2022-09-26T18:36:26.155Z,91.75
2022-09-26T18:38:53.969Z,92.40
2022-09-26T18:41:26.860Z,92.23
2022-09-26T18:43:55.823Z,92.06
2022-09-26T18:46:23.658Z,91.80
2022-09-26T18:48:51.770Z,92.51
2022-09-26T18:51:20.899Z,91.99
2022-09-26T18:53:48.505Z,91.64
2022-09-26T18:56:33.705Z,90.58
2022-09-26T18:59:01.471Z,90.31
2022-09-26T19:01:31.373Z,90.48
2022-09-26T19:04:00.145Z,91.60
2022-09-26T19:06:31.988Z,91.54
2022-09-26T19:09:01.377Z,92.29
2022-09-26T19:11:32.002Z,92.97
2022-09-26T19:14:02.470Z,93.62
2022-09-26T19:16:30.128Z,93.19
2022-09-26T19:18:57.793Z,93.06
2022-09-26T19:21:31.734Z,93.58
2022-09-26T19:24:01.417Z,92.69
2022-09-26T19:26:32.362Z,93.42
2022-09-26T19:29:00.494Z,92.77
2022-09-26T19:31:28.329Z,93.48
2022-09-26T19:33:56.226Z,92.42
2022-09-26T19:36:24.050Z,92.55
2022-09-26T19:38:53.000Z,93.29
2022-09-26T19:41:20.619Z,93.24
2022-09-26T19:43:48.277Z,93.46
2022-09-26T19:46:21.143Z,93.23
2022-09-26T19:48:48.949Z,92.73
2022-09-26T19:51:19.727Z,93.20
2022-09-26T19:53:47.443Z,93.89
2022-09-26T19:56:16.479Z,94.20
2022-09-26T19:58:46.217Z,94.19
2022-09-26T20:01:16.420Z,94.61
2022-09-26T20:03:44.856Z,93.96
2022-09-26T20:06:14.232Z,94.76
2022-09-26T20:08:42.101Z,95.35
2022-09-26T20:11:09.853Z,94.79
2022-09-26T20:13:52.775Z,94.97
2022-09-26T20:16:20.724Z,94.69
2022-09-26T20:18:51.023Z,95.14
2022-09-26T20:21:20.302Z,94.87
2022-09-26T20:23:48.288Z,94.73
2022-09-26T20:26:17.334Z,93.82
2022-09-26T20:28:46.366Z,94.19
2022-09-26T20:31:21.437Z,94.29
2022-09-26T20:33:49.282Z,94.30
2022-09-26T20:36:17.469Z,94.38
2022-09-26T20:38:47.038Z,95.18
2022-09-26T20:41:20.424Z,95.30
2022-09-26T20:43:51.306Z,94.87
2022-09-26T20:46:20.872Z,94.75
2022-09-26T20:48:50.405Z,95.13
2022-09-26T20:51:20.388Z,94.83
2022-09-26T20:53:50.008Z,95.46
2022-09-26T20:56:20.873Z,95.81
2022-09-26T20:58:49.731Z,95.33
2022-09-26T21:01:20.939Z,96.31
2022-09-26T21:03:56.460Z,96.04
2022-09-26T21:06:26.605Z,96.51
2022-09-26T21:08:54.271Z,96.47
2022-09-26T21:11:23.742Z,96.23
2022-09-26T21:13:52.674Z,96.39
2022-09-26T21:16:21.370Z,96.17
2022-09-26T21:18:51.541Z,96.44
2022-09-26T21:21:22.570Z,96.35
2022-09-26T21:23:50.556Z,96.26
2022-09-26T21:26:21.026Z,96.38
2022-09-26T21:28:50.708Z,96.15
2022-09-26T21:31:26.002Z,96.41
2022-09-26T21:33:54.035Z,96.12
2022-09-26T21:36:22.179Z,95.67
2022-09-26T21:38:51.721Z,95.74
2022-09-26T21:41:19.574Z,95.50
2022-09-26T21:43:50.326Z,95.43
2022-09-26T21:46:20.318Z,95.92
2022-09-26T21:48:51.600Z,95.95
2022-09-26T21:51:20.657Z,95.73
2022-09-26T21:53:53.211Z,95.85
2022-09-26T21:56:24.347Z,96.39
2022-09-26T21:58:56.073Z,95.87
2022-09-26T22:01:24.187Z,96.54
2022-09-26T22:03:55.477Z,95.60
2022-09-26T22:06:23.339Z,96.58
2022-09-26T22:08:54.745Z,95.98
2022-09-26T22:11:22.293Z,96.10
2022-09-26T22:13:49.760Z,95.57
2022-09-26T22:16:17.802Z,96.33
2022-09-26T22:18:45.305Z,96.11
2022-09-26T22:21:14.190Z,96.46
2022-09-26T22:23:41.875Z,96.38
2022-09-26T22:26:09.491Z,96.11
2022-09-26T22:28:37.042Z,95.30
2022-09-26T22:31:05.686Z,96.28
2022-09-26T22:33:33.451Z,96.48
2022-09-26T22:36:00.930Z,96.76
2022-09-26T22:38:29.843Z,96.93
2022-09-26T22:40:57.763Z,96.92
2022-09-26T22:43:25.378Z,95.56
2022-09-26T22:45:53.145Z,96.70
2022-09-26T22:48:21.490Z,96.32
2022-09-26T22:50:48.966Z,95.40
2022-09-26T22:53:16.435Z,96.08
2022-09-26T22:55:54.706Z,95.84
2022-09-26T22:58:22.707Z,95.56
2022-09-26T23:00:50.967Z,96.22
2022-09-26T23:03:18.488Z,96.12
2022-09-26T23:05:47.911Z,96.26
2022-09-26T23:08:15.417Z,96.46
2022-09-26T23:10:49.232Z,96.34
2022-09-26T23:13:18.353Z,96.50
2022-09-26T23:15:46.169Z,96.42
2022-09-26T23:18:14.189Z,96.25
2022-09-26T23:20:42.362Z,95.72
2022-09-26T23:23:10.942Z,96.90
2022-09-26T23:25:45.837Z,96.90
2022-09-26T23:28:13.344Z,96.81
2022-09-26T23:30:42.524Z,96.22
2022-09-26T23:33:10.220Z,96.80
2022-09-26T23:35:38.161Z,96.53
2022-09-26T23:38:05.812Z,96.54
2022-09-26T23:40:34.177Z,96.38
2022-09-26T23:43:02.475Z,96.68
2022-09-26T23:45:30.960Z,96.53
2022-09-26T23:48:00.012Z,96.40
2022-09-26T23:50:27.469Z,96.63
2022-09-26T23:52:54.914Z,95.96
2022-09-26T23:55:22.425Z,96.03
2022-09-26T23:57:50.034Z,95.92
